Al Hoceima, Morocco
Current Conditions -  °F | °C
As of 4:00 AM on Saturday 20 Dec 2014 (Local Time) from GMTA Reporting Station
Clear Clear  
Wind Chill: 48°   Ceiling: Unl
Heat Index: 48°   Visibility: 5mi
Dew Point: 46°   Wind: 2mph
Humidity: 93%   Direction: NA
Pressure: 30.39"   Gusts: NA
Location:  35.26°N, 3.94°W
Report Text: GMTA 200300Z VRB02KT 8000 NSC 09/08 Q1029 NOSIG
Loading
Personal Weather Stations






























Interactive Weather Map New forecast layout! Learn more

10-Day Weather Forecast

Advertisements
Track Severe Weather on mobile